createdAt,value
2018-05-16T00:01:08.867Z,69.11
2018-05-16T00:03:35.152Z,69.06
2018-05-16T00:06:01.439Z,69.05
2018-05-16T00:08:27.724Z,69.20
2018-05-16T00:10:54.012Z,68.99
2018-05-16T00:13:20.294Z,69.03
2018-05-16T00:15:46.592Z,69.49
2018-05-16T00:18:12.881Z,68.97
2018-05-16T00:20:39.197Z,68.96
2018-05-16T00:23:05.487Z,68.82
2018-05-16T00:25:31.832Z,68.84
2018-05-16T00:27:58.121Z,68.76
2018-05-16T00:30:24.449Z,68.77
2018-05-16T00:32:50.740Z,68.93
2018-05-16T00:35:17.076Z,68.82
2018-05-16T00:37:43.364Z,68.48
2018-05-16T00:40:09.652Z,68.53
2018-05-16T00:42:35.944Z,68.44
2018-05-16T00:45:02.236Z,68.32
2018-05-16T00:47:28.535Z,68.02
2018-05-16T00:49:54.819Z,68.06
2018-05-16T00:52:21.107Z,68.17
2018-05-16T00:54:47.397Z,68.03
2018-05-16T00:57:13.729Z,68.24
2018-05-16T00:59:40.025Z,68.20
2018-05-16T01:02:06.313Z,68.44
2018-05-16T01:04:32.617Z,68.87
2018-05-16T01:06:58.953Z,69.02
2018-05-16T01:09:25.236Z,69.09
2018-05-16T01:11:51.568Z,68.79
2018-05-16T01:14:17.857Z,68.78
2018-05-16T01:16:44.191Z,68.50
2018-05-16T01:19:10.520Z,68.31
2018-05-16T01:21:36.807Z,67.87
2018-05-16T01:24:03.148Z,67.24
2018-05-16T01:26:29.446Z,67.12
2018-05-16T01:28:55.734Z,66.58
2018-05-16T01:31:22.029Z,65.76
2018-05-16T01:33:48.339Z,65.48
2018-05-16T01:36:14.619Z,65.31
2018-05-16T01:38:40.914Z,64.90
2018-05-16T01:41:07.211Z,64.32
2018-05-16T01:43:33.508Z,64.23
2018-05-16T01:45:59.792Z,64.18
2018-05-16T01:48:26.133Z,64.25
2018-05-16T01:50:52.437Z,63.76
2018-05-16T01:53:18.707Z,63.98
2018-05-16T01:55:44.999Z,64.30
2018-05-16T01:58:11.327Z,64.19
2018-05-16T02:00:37.616Z,64.44
2018-05-16T02:03:03.915Z,64.59
2018-05-16T02:05:30.199Z,64.69
2018-05-16T02:07:56.531Z,64.69
2018-05-16T02:10:23.015Z,64.72
2018-05-16T02:12:49.299Z,64.84
2018-05-16T02:15:15.590Z,64.93
2018-05-16T02:17:41.880Z,64.95
2018-05-16T02:20:08.176Z,65.02
2018-05-16T02:22:34.473Z,64.77
2018-05-16T02:25:00.762Z,64.86
2018-05-16T02:27:27.058Z,64.67
2018-05-16T02:29:53.350Z,64.89
2018-05-16T02:32:19.650Z,64.92
2018-05-16T02:34:45.936Z,64.89
2018-05-16T02:37:12.225Z,64.84
2018-05-16T02:39:38.518Z,64.72
2018-05-16T02:42:04.817Z,64.82
2018-05-16T02:44:31.113Z,64.72
2018-05-16T02:46:57.442Z,64.75
2018-05-16T02:49:23.737Z,64.97
2018-05-16T02:51:50.031Z,65.14
2018-05-16T02:54:16.336Z,65.04
2018-05-16T02:56:42.627Z,65.06
2018-05-16T02:59:08.922Z,64.83
2018-05-16T03:01:35.219Z,64.85
2018-05-16T03:04:01.515Z,64.94
2018-05-16T03:06:27.817Z,64.76
2018-05-16T03:08:54.105Z,64.51
2018-05-16T03:11:20.396Z,64.24
2018-05-16T03:13:46.685Z,64.32
2018-05-16T03:16:12.973Z,64.16
2018-05-16T03:18:39.272Z,63.82
2018-05-16T03:21:05.643Z,64.02
2018-05-16T03:23:31.930Z,63.91
2018-05-16T03:25:58.215Z,64.00
2018-05-16T03:28:24.550Z,63.81
2018-05-16T03:30:50.842Z,63.89
2018-05-16T03:33:17.141Z,64.07
2018-05-16T03:35:43.433Z,63.91
2018-05-16T03:38:09.720Z,63.75
2018-05-16T03:40:36.016Z,63.80
2018-05-16T03:43:02.305Z,64.06
2018-05-16T03:45:28.633Z,64.18
2018-05-16T03:47:54.929Z,64.29
2018-05-16T03:50:21.219Z,64.54
2018-05-16T03:52:47.511Z,64.50
2018-05-16T03:55:13.798Z,64.56
2018-05-16T03:57:40.080Z,64.71
2018-05-16T04:00:06.412Z,64.73
2018-05-16T04:02:32.707Z,64.41
2018-05-16T04:04:58.996Z,66.36
2018-05-16T04:07:25.326Z,68.37
2018-05-16T04:09:51.619Z,67.90
2018-05-16T04:12:17.906Z,67.24
2018-05-16T04:14:44.202Z,66.91
2018-05-16T04:17:10.538Z,65.02
2018-05-16T04:19:36.833Z,64.28
2018-05-16T04:22:03.123Z,63.85
2018-05-16T04:24:29.417Z,63.88
2018-05-16T04:26:55.752Z,63.79
2018-05-16T04:29:22.066Z,63.57
2018-05-16T04:31:48.357Z,63.39
2018-05-16T04:34:14.652Z,63.45
2018-05-16T04:36:40.950Z,63.44
2018-05-16T04:39:07.233Z,63.24
2018-05-16T04:41:33.520Z,63.00
2018-05-16T04:43:59.848Z,63.27
2018-05-16T04:46:26.136Z,63.24
2018-05-16T04:48:52.425Z,63.35
2018-05-16T04:51:18.752Z,63.04
2018-05-16T04:53:45.075Z,62.33
2018-05-16T04:56:11.370Z,62.80
2018-05-16T04:58:37.685Z,62.85
2018-05-16T05:01:04.051Z,62.21
2018-05-16T05:03:30.312Z,62.24
2018-05-16T05:05:56.605Z,62.38
2018-05-16T05:08:22.894Z,62.28
2018-05-16T05:10:49.234Z,62.55
2018-05-16T05:13:15.523Z,62.32
2018-05-16T05:15:41.822Z,62.04
2018-05-16T05:18:08.123Z,62.04
2018-05-16T05:20:34.409Z,62.01
2018-05-16T05:23:00.741Z,62.37
2018-05-16T05:25:27.075Z,62.27
2018-05-16T05:27:53.361Z,62.18
2018-05-16T05:30:19.702Z,62.16
2018-05-16T05:32:45.983Z,61.72
2018-05-16T05:35:12.293Z,61.95
2018-05-16T05:37:38.589Z,62.03
2018-05-16T05:40:04.893Z,61.76
2018-05-16T05:42:31.169Z,61.79
2018-05-16T05:44:57.466Z,61.83
2018-05-16T05:47:23.751Z,61.89
2018-05-16T05:49:50.086Z,62.06
2018-05-16T05:52:16.431Z,61.89
2018-05-16T05:54:42.723Z,62.28
2018-05-16T05:57:09.019Z,62.16
2018-05-16T05:59:35.307Z,62.31
2018-05-16T06:02:01.605Z,62.24
2018-05-16T06:04:27.897Z,62.17
2018-05-16T06:06:54.199Z,62.17
2018-05-16T06:09:20.527Z,61.99
2018-05-16T06:11:46.816Z,62.08
2018-05-16T06:14:13.108Z,61.81
2018-05-16T06:16:39.404Z,61.95
2018-05-16T06:19:05.706Z,61.92
2018-05-16T06:21:31.995Z,61.51
2018-05-16T06:23:58.287Z,61.05
2018-05-16T06:26:24.594Z,60.64
2018-05-16T06:28:50.924Z,60.30
2018-05-16T06:31:17.216Z,60.21
2018-05-16T06:33:43.510Z,59.98
2018-05-16T06:36:09.801Z,59.95
2018-05-16T06:38:36.090Z,59.98
2018-05-16T06:41:02.381Z,59.90
2018-05-16T06:43:28.678Z,59.83
2018-05-16T06:45:54.978Z,59.61
2018-05-16T06:48:21.258Z,59.33
2018-05-16T06:50:47.552Z,58.85
2018-05-16T06:53:13.840Z,58.67
2018-05-16T06:55:40.129Z,57.81
2018-05-16T06:58:06.425Z,57.38
2018-05-16T07:00:32.782Z,56.59
2018-05-16T07:02:59.120Z,56.66
2018-05-16T07:05:25.413Z,56.22
2018-05-16T07:07:51.715Z,55.86
2018-05-16T07:10:18.013Z,55.51
2018-05-16T07:12:44.307Z,55.11
2018-05-16T07:15:10.608Z,54.75
2018-05-16T07:17:36.903Z,54.53
2018-05-16T07:20:03.203Z,54.62
2018-05-16T07:22:29.502Z,54.98
2018-05-16T07:24:55.790Z,54.94
2018-05-16T07:27:22.087Z,54.63
2018-05-16T07:29:48.382Z,55.01
2018-05-16T07:32:14.696Z,55.14
2018-05-16T07:34:40.981Z,55.02
2018-05-16T07:37:07.267Z,55.08
2018-05-16T07:39:33.563Z,54.57
2018-05-16T07:41:59.865Z,54.17
2018-05-16T07:44:26.178Z,54.43
2018-05-16T07:46:52.478Z,54.12
2018-05-16T07:49:18.768Z,53.90
2018-05-16T07:51:45.111Z,53.46
2018-05-16T07:54:11.409Z,53.81
2018-05-16T07:56:37.715Z,53.83
2018-05-16T07:59:04.016Z,53.71
2018-05-16T08:01:30.358Z,53.48
2018-05-16T08:03:56.647Z,53.45
2018-05-16T08:06:22.944Z,52.68
2018-05-16T08:08:49.235Z,52.17
2018-05-16T08:11:15.567Z,52.09
2018-05-16T08:13:41.856Z,51.78
2018-05-16T08:16:08.195Z,52.02
2018-05-16T08:18:34.487Z,52.12
2018-05-16T08:21:00.802Z,51.92
2018-05-16T08:23:27.096Z,51.59
2018-05-16T08:25:53.379Z,50.99
2018-05-16T08:28:19.710Z,50.53
2018-05-16T08:30:46.001Z,50.48
2018-05-16T08:33:12.329Z,50.30
2018-05-16T08:35:38.626Z,50.32
2018-05-16T08:38:04.917Z,49.68
2018-05-16T08:40:31.233Z,49.16
2018-05-16T08:42:57.564Z,49.15
2018-05-16T08:45:23.824Z,49.07
2018-05-16T08:47:50.123Z,48.72
2018-05-16T08:50:16.448Z,48.54
2018-05-16T08:52:42.776Z,48.72
2018-05-16T08:55:09.074Z,48.58
2018-05-16T08:57:35.363Z,48.20
2018-05-16T09:00:01.658Z,48.32
2018-05-16T09:02:27.943Z,48.08
2018-05-16T09:04:54.240Z,47.92
2018-05-16T09:07:20.528Z,47.38
2018-05-16T09:09:46.868Z,47.01
2018-05-16T09:12:13.157Z,47.37
2018-05-16T09:14:39.457Z,47.40
2018-05-16T09:17:05.754Z,47.27
2018-05-16T09:19:32.048Z,47.13
2018-05-16T09:21:58.355Z,45.83
2018-05-16T09:24:24.686Z,45.43
2018-05-16T09:26:50.979Z,45.53
2018-05-16T09:29:17.278Z,45.68
2018-05-16T09:31:43.573Z,44.03
2018-05-16T09:34:09.865Z,41.52
2018-05-16T09:36:36.167Z,40.17
2018-05-16T09:39:02.464Z,40.09
2018-05-16T09:41:28.752Z,39.67
2018-05-16T09:43:55.044Z,38.58
2018-05-16T09:46:21.335Z,38.74
2018-05-16T09:48:47.681Z,38.64
2018-05-16T09:51:13.977Z,37.47
2018-05-16T09:53:40.268Z,36.27
2018-05-16T09:56:06.592Z,35.04
2018-05-16T09:58:32.880Z,34.15
2018-05-16T10:00:59.208Z,34.22
2018-05-16T10:03:25.501Z,34.37
2018-05-16T10:05:51.792Z,34.15
2018-05-16T10:08:18.172Z,34.68
2018-05-16T10:10:44.476Z,34.13
2018-05-16T10:13:10.768Z,34.23
2018-05-16T10:15:37.066Z,34.28
2018-05-16T10:18:03.411Z,34.63
2018-05-16T10:20:29.832Z,34.61
2018-05-16T10:22:56.130Z,34.85
2018-05-16T10:25:22.464Z,35.52
2018-05-16T10:27:48.767Z,34.87
2018-05-16T10:30:15.059Z,35.34
2018-05-16T10:32:43.737Z,35.20
2018-05-16T10:35:07.689Z,34.67
2018-05-16T10:37:33.985Z,34.59
2018-05-16T10:40:00.284Z,34.79
2018-05-16T10:42:26.578Z,34.21
2018-05-16T10:44:52.886Z,33.43
2018-05-16T10:47:19.181Z,33.11
2018-05-16T10:49:45.469Z,32.18
2018-05-16T10:52:11.811Z,30.88
2018-05-16T10:54:38.055Z,30.99
2018-05-16T10:57:04.351Z,31.43
2018-05-16T10:59:30.644Z,31.00
2018-05-16T11:01:56.944Z,30.70
2018-05-16T11:04:23.230Z,30.49
2018-05-16T11:06:49.534Z,29.90
2018-05-16T11:09:15.849Z,30.25
2018-05-16T11:11:42.139Z,29.50
2018-05-16T11:14:08.439Z,29.01
2018-05-16T11:16:34.731Z,29.04
2018-05-16T11:19:01.040Z,28.25
2018-05-16T11:21:27.417Z,28.55
2018-05-16T11:23:53.629Z,28.79
2018-05-16T11:26:19.944Z,28.73
2018-05-16T11:28:46.231Z,28.29
2018-05-16T11:31:12.534Z,28.30
2018-05-16T11:33:38.840Z,28.04
2018-05-16T11:36:05.149Z,28.41
2018-05-16T11:38:31.448Z,28.20
2018-05-16T11:40:57.749Z,28.49
2018-05-16T11:43:24.048Z,28.87
2018-05-16T11:45:50.347Z,28.91
2018-05-16T11:48:16.682Z,28.82
2018-05-16T11:50:43.004Z,28.41
2018-05-16T11:53:09.306Z,28.49
2018-05-16T11:55:35.593Z,28.33
2018-05-16T11:58:01.886Z,28.64
2018-05-16T12:00:28.175Z,29.66
2018-05-16T12:02:54.493Z,32.01
2018-05-16T12:05:20.777Z,33.99
2018-05-16T12:07:47.069Z,33.64
2018-05-16T12:10:13.359Z,33.33
2018-05-16T12:12:39.657Z,32.32
2018-05-16T12:15:05.952Z,31.89
2018-05-16T12:17:32.242Z,30.88
2018-05-16T12:19:58.533Z,29.81
2018-05-16T12:22:24.838Z,31.96
2018-05-16T12:24:51.127Z,32.03
2018-05-16T12:27:17.542Z,32.11
2018-05-16T12:29:43.843Z,30.73
2018-05-16T12:32:10.136Z,30.85
2018-05-16T12:34:36.447Z,31.87
2018-05-16T12:37:02.767Z,31.53
2018-05-16T12:39:29.103Z,32.46
2018-05-16T12:41:55.436Z,32.61
2018-05-16T12:44:21.733Z,32.60
2018-05-16T12:46:48.023Z,32.09
2018-05-16T12:49:14.321Z,32.52
2018-05-16T12:51:40.607Z,32.31
2018-05-16T12:54:06.931Z,32.54
2018-05-16T12:56:33.269Z,32.50
2018-05-16T12:58:59.554Z,32.71
2018-05-16T13:01:25.865Z,32.95
2018-05-16T13:03:52.175Z,32.42
2018-05-16T13:06:18.476Z,31.59
2018-05-16T13:08:44.818Z,30.56
2018-05-16T13:11:11.151Z,31.07
2018-05-16T13:13:37.445Z,30.16
2018-05-16T13:16:03.767Z,28.96
2018-05-16T13:18:30.069Z,28.32
2018-05-16T13:20:56.365Z,29.21
2018-05-16T13:23:22.664Z,29.24
2018-05-16T13:25:48.961Z,28.76
2018-05-16T13:28:15.292Z,29.27
2018-05-16T13:30:41.624Z,29.48
2018-05-16T13:33:07.937Z,29.23
2018-05-16T13:35:34.266Z,29.63
2018-05-16T13:38:00.538Z,28.76
2018-05-16T13:40:26.833Z,27.99
2018-05-16T13:42:53.130Z,27.70
2018-05-16T13:45:19.454Z,28.02
2018-05-16T13:47:45.761Z,28.07
2018-05-16T13:50:12.052Z,28.61
2018-05-16T13:52:38.390Z,29.08
2018-05-16T13:55:04.682Z,29.19
2018-05-16T13:57:30.977Z,29.34
2018-05-16T13:59:57.272Z,29.05
2018-05-16T14:02:23.571Z,29.40
2018-05-16T14:04:49.867Z,28.93
2018-05-16T14:07:16.155Z,29.15
2018-05-16T14:09:42.450Z,29.49
2018-05-16T14:12:08.746Z,29.71
2018-05-16T14:14:35.042Z,29.34
2018-05-16T14:17:01.347Z,29.21
2018-05-16T14:19:27.630Z,29.86
2018-05-16T14:21:53.939Z,29.22
2018-05-16T14:24:20.245Z,29.13
2018-05-16T14:26:46.549Z,29.92
2018-05-16T14:29:12.839Z,30.42
2018-05-16T14:31:39.129Z,31.30
2018-05-16T14:34:05.427Z,31.54
2018-05-16T14:36:31.722Z,31.60
2018-05-16T14:38:58.024Z,31.57
2018-05-16T14:41:24.313Z,32.00
2018-05-16T14:43:50.629Z,32.04
2018-05-16T14:46:16.911Z,32.02
2018-05-16T14:48:43.202Z,31.59
2018-05-16T14:51:09.497Z,31.28
2018-05-16T14:53:35.794Z,31.28
2018-05-16T14:56:02.135Z,31.50
2018-05-16T14:58:28.374Z,30.86
2018-05-16T15:00:54.675Z,31.00
2018-05-16T15:03:20.973Z,30.95
2018-05-16T15:05:47.274Z,31.67
2018-05-16T15:08:13.574Z,31.25
2018-05-16T15:10:39.907Z,31.94
2018-05-16T15:13:06.208Z,31.83
2018-05-16T15:15:32.502Z,31.14
2018-05-16T15:17:58.801Z,31.93
2018-05-16T15:20:25.093Z,31.13
2018-05-16T15:22:51.380Z,31.29
2018-05-16T15:25:17.815Z,30.82
2018-05-16T15:27:44.194Z,29.96
2018-05-16T15:30:10.449Z,30.06
2018-05-16T15:32:36.743Z,30.26
2018-05-16T15:35:03.035Z,29.96
2018-05-16T15:37:29.326Z,30.79
2018-05-16T15:39:55.640Z,30.76
2018-05-16T15:42:21.933Z,30.30
2018-05-16T15:44:48.233Z,29.78
2018-05-16T15:47:14.551Z,29.75
2018-05-16T15:49:40.858Z,29.21
2018-05-16T15:52:07.159Z,28.83
2018-05-16T15:54:33.476Z,29.77
2018-05-16T15:56:59.768Z,30.61
2018-05-16T15:59:26.118Z,30.03
2018-05-16T16:01:52.657Z,30.19
2018-05-16T16:04:19.007Z,30.64
2018-05-16T16:06:45.324Z,29.96
2018-05-16T16:09:11.638Z,29.88
2018-05-16T16:11:37.929Z,29.75
2018-05-16T16:14:04.230Z,29.43
2018-05-16T16:16:30.529Z,29.51
2018-05-16T16:18:56.829Z,29.46
2018-05-16T16:21:23.128Z,29.74
2018-05-16T16:23:49.425Z,30.25
2018-05-16T16:26:15.716Z,29.01
2018-05-16T16:28:42.036Z,29.40
2018-05-16T16:31:08.333Z,29.50
2018-05-16T16:33:34.664Z,30.50
2018-05-16T16:36:00.956Z,29.37
2018-05-16T16:38:27.239Z,29.26
2018-05-16T16:40:53.552Z,29.84
2018-05-16T16:43:19.886Z,29.96
2018-05-16T16:45:46.174Z,30.42
2018-05-16T16:48:12.465Z,28.96
2018-05-16T16:50:38.828Z,29.61
2018-05-16T16:53:05.118Z,29.02
2018-05-16T16:55:31.401Z,29.85
2018-05-16T16:57:57.688Z,29.79
2018-05-16T17:00:23.982Z,30.49
2018-05-16T17:02:50.282Z,31.05
2018-05-16T17:05:16.603Z,31.47
2018-05-16T17:07:42.886Z,30.67
2018-05-16T17:10:09.190Z,30.70
2018-05-16T17:12:35.481Z,30.99
2018-05-16T17:15:01.795Z,30.76
2018-05-16T17:17:28.091Z,31.78
2018-05-16T17:19:54.385Z,31.82
2018-05-16T17:22:20.676Z,32.73
2018-05-16T17:24:46.968Z,32.14
2018-05-16T17:27:13.288Z,33.58
2018-05-16T17:29:39.591Z,34.34
2018-05-16T17:32:05.882Z,33.97
2018-05-16T17:34:32.175Z,34.57
2018-05-16T17:36:58.477Z,35.05
2018-05-16T17:39:24.770Z,34.98
2018-05-16T17:41:51.071Z,35.40
2018-05-16T17:44:17.463Z,34.79
2018-05-16T17:46:43.757Z,35.33
2018-05-16T17:49:10.056Z,35.65
2018-05-16T17:51:36.388Z,35.91
2018-05-16T17:54:02.680Z,36.63
2018-05-16T17:56:28.974Z,36.72
2018-05-16T17:58:55.263Z,37.66
2018-05-16T18:01:21.557Z,38.37
2018-05-16T18:03:47.845Z,39.02
2018-05-16T18:06:14.177Z,39.51
2018-05-16T18:08:40.464Z,39.78
2018-05-16T18:11:06.771Z,40.34
2018-05-16T18:13:33.106Z,41.15
2018-05-16T18:15:59.397Z,41.34
2018-05-16T18:18:25.725Z,41.65
2018-05-16T18:20:52.015Z,42.36
2018-05-16T18:23:18.304Z,42.55
2018-05-16T18:25:44.598Z,43.26
2018-05-16T18:28:10.890Z,43.41
2018-05-16T18:30:37.193Z,43.60
2018-05-16T18:33:03.487Z,43.97
2018-05-16T18:35:29.787Z,44.55
2018-05-16T18:37:56.139Z,45.24
2018-05-16T18:40:22.433Z,46.93
2018-05-16T18:42:48.725Z,48.01
2018-05-16T18:45:15.025Z,49.75
2018-05-16T18:47:41.317Z,50.28
2018-05-16T18:50:07.610Z,50.42
2018-05-16T18:52:33.942Z,50.39
2018-05-16T18:55:00.234Z,50.48
2018-05-16T18:57:26.525Z,50.86
2018-05-16T18:59:52.821Z,51.15
2018-05-16T19:02:19.271Z,51.23
2018-05-16T19:04:45.554Z,51.05
2018-05-16T19:07:11.897Z,50.43
2018-05-16T19:09:38.194Z,50.41
2018-05-16T19:12:04.481Z,51.29
2018-05-16T19:14:30.854Z,52.07
2018-05-16T19:16:57.124Z,52.01
2018-05-16T19:19:23.426Z,51.94
2018-05-16T19:21:49.720Z,51.57
2018-05-16T19:24:16.009Z,51.01
2018-05-16T19:26:42.305Z,50.75
2018-05-16T19:29:08.597Z,50.93
2018-05-16T19:31:35.146Z,51.01
2018-05-16T19:34:01.413Z,51.35
2018-05-16T19:36:27.706Z,51.31
2018-05-16T19:38:53.990Z,51.13
2018-05-16T19:41:20.284Z,51.10
2018-05-16T19:43:46.610Z,50.95
2018-05-16T19:46:12.886Z,50.74
2018-05-16T19:48:39.192Z,50.70
2018-05-16T19:51:05.514Z,50.66
2018-05-16T19:53:32.359Z,50.79
2018-05-16T19:55:58.641Z,50.56
2018-05-16T19:58:26.944Z,50.58
2018-05-16T20:00:54.423Z,50.77
2018-05-16T20:03:20.937Z,50.96
2018-05-16T20:05:47.080Z,51.27
2018-05-16T20:08:13.374Z,51.44
2018-05-16T20:10:39.663Z,51.58
2018-05-16T20:13:05.962Z,51.77
2018-05-16T20:15:32.351Z,51.84
2018-05-16T20:17:58.639Z,51.96
2018-05-16T20:20:25.077Z,51.96
2018-05-16T20:22:51.288Z,52.04
2018-05-16T20:25:17.591Z,51.90
2018-05-16T20:27:43.886Z,52.07
2018-05-16T20:30:10.218Z,52.08
2018-05-16T20:32:36.509Z,52.21
2018-05-16T20:35:02.806Z,52.57
2018-05-16T20:37:29.143Z,52.35
2018-05-16T20:39:55.439Z,52.95
2018-05-16T20:42:21.735Z,53.12
2018-05-16T20:44:48.031Z,54.02
2018-05-16T20:47:14.315Z,53.21
2018-05-16T20:49:40.655Z,53.42
2018-05-16T20:52:06.958Z,53.10
2018-05-16T20:54:33.256Z,53.47
2018-05-16T20:56:59.547Z,53.12
2018-05-16T20:59:25.838Z,53.36
2018-05-16T21:01:52.130Z,53.67
2018-05-16T21:04:18.416Z,53.75
2018-05-16T21:06:44.709Z,54.13
2018-05-16T21:09:10.998Z,54.44
2018-05-16T21:11:37.296Z,54.32
2018-05-16T21:14:03.624Z,54.49
2018-05-16T21:16:29.912Z,54.32
2018-05-16T21:18:56.235Z,54.41
2018-05-16T21:21:22.534Z,55.55
2018-05-16T21:23:48.860Z,55.87
2018-05-16T21:26:15.154Z,55.89
2018-05-16T21:28:41.539Z,55.84
2018-05-16T21:31:07.802Z,55.66
2018-05-16T21:33:34.100Z,55.01
2018-05-16T21:36:00.469Z,54.51
2018-05-16T21:38:26.736Z,54.08
2018-05-16T21:40:53.030Z,53.69
2018-05-16T21:43:19.315Z,53.50
2018-05-16T21:45:45.658Z,53.61
2018-05-16T21:48:11.965Z,54.10
2018-05-16T21:50:38.261Z,54.18
2018-05-16T21:53:04.547Z,54.43
2018-05-16T21:55:30.843Z,54.47
2018-05-16T21:57:59.508Z,54.57
2018-05-16T22:00:23.661Z,54.47
2018-05-16T22:02:49.966Z,54.76
2018-05-16T22:05:16.281Z,54.91
2018-05-16T22:07:42.640Z,54.71
2018-05-16T22:10:08.948Z,53.97
2018-05-16T22:12:35.232Z,53.04
2018-05-16T22:15:01.532Z,53.27
2018-05-16T22:17:27.827Z,53.79
2018-05-16T22:19:54.128Z,54.40
2018-05-16T22:22:20.429Z,54.74
2018-05-16T22:24:46.723Z,55.00
2018-05-16T22:27:13.021Z,54.77
2018-05-16T22:29:39.312Z,54.56
2018-05-16T22:32:05.603Z,54.28
2018-05-16T22:34:31.913Z,54.10
2018-05-16T22:36:58.199Z,54.15
2018-05-16T22:39:24.526Z,54.17
2018-05-16T22:41:50.811Z,54.50
2018-05-16T22:44:17.081Z,54.62
2018-05-16T22:46:43.385Z,54.41
2018-05-16T22:49:09.671Z,54.38
2018-05-16T22:51:35.954Z,54.60
2018-05-16T22:54:02.252Z,54.54
2018-05-16T22:56:28.551Z,54.94
2018-05-16T22:58:54.836Z,55.00
2018-05-16T23:01:21.123Z,55.43
2018-05-16T23:03:47.416Z,55.72
2018-05-16T23:06:13.708Z,55.89
2018-05-16T23:08:39.998Z,56.18
2018-05-16T23:11:06.288Z,56.50
2018-05-16T23:13:32.585Z,56.48
2018-05-16T23:15:58.952Z,56.54
2018-05-16T23:18:25.208Z,56.83
2018-05-16T23:20:51.501Z,56.84
2018-05-16T23:23:17.788Z,57.14
2018-05-16T23:25:44.075Z,57.14
2018-05-16T23:28:10.374Z,57.30
2018-05-16T23:30:36.661Z,57.62
2018-05-16T23:33:02.960Z,57.87
2018-05-16T23:35:29.253Z,57.86
2018-05-16T23:37:55.539Z,58.11
2018-05-16T23:40:21.879Z,58.13
2018-05-16T23:42:48.165Z,58.41
2018-05-16T23:45:14.462Z,58.54
2018-05-16T23:47:40.756Z,58.63
2018-05-16T23:50:07.044Z,58.67
2018-05-16T23:52:33.331Z,58.58
2018-05-16T23:54:59.626Z,58.74
2018-05-16T23:57:25.921Z,59.12
2018-05-16T23:59:52.207Z,59.16
